sensor_id;sensor_type;location;lat;lon;timestamp;pressure;altitude;pressure_sealevel;temperature;humidity
65666;BME280;52365;47.464;18.976;2024-02-21T00:00:17;100587.44;;;9.77;63.53
65666;BME280;52365;47.464;18.976;2024-02-21T00:00:38;100580.09;;;9.77;63.62
65666;BME280;52365;47.464;18.976;2024-02-21T00:01:00;100586.78;;;9.73;63.59
65666;BME280;52365;47.464;18.976;2024-02-21T00:01:22;100583.91;;;9.80;63.74
65666;BME280;52365;47.464;18.976;2024-02-21T00:01:43;100589.19;;;9.96;63.43
65666;BME280;52365;47.464;18.976;2024-02-21T00:02:04;100583.03;;;9.83;63.47
65666;BME280;52365;47.464;18.976;2024-02-21T00:02:25;100583.56;;;9.78;63.59
65666;BME280;52365;47.464;18.976;2024-02-21T00:02:46;100584.97;;;9.82;63.49
65666;BME280;52365;47.464;18.976;2024-02-21T00:03:07;100584.44;;;9.88;63.48
65666;BME280;52365;47.464;18.976;2024-02-21T00:03:28;100579.72;;;10.04;63.19
65666;BME280;52365;47.464;18.976;2024-02-21T00:03:49;100576.81;;;9.99;62.91
65666;BME280;52365;47.464;18.976;2024-02-21T00:04:10;100576.75;;;9.73;63.18
65666;BME280;52365;47.464;18.976;2024-02-21T00:04:31;100582.34;;;9.66;63.60
65666;BME280;52365;47.464;18.976;2024-02-21T00:04:47;100577.50;;;9.74;63.69
65666;BME280;52365;47.464;18.976;2024-02-21T00:05:08;100585.56;;;9.61;63.73
65666;BME280;52365;47.464;18.976;2024-02-21T00:05:29;100578.56;;;9.34;64.57
65666;BME280;52365;47.464;18.976;2024-02-21T00:05:50;100577.91;;;9.30;64.90
65666;BME280;52365;47.464;18.976;2024-02-21T00:06:11;100584.25;;;9.53;64.82
65666;BME280;52365;47.464;18.976;2024-02-21T00:06:32;100576.97;;;9.66;64.26
65666;BME280;52365;47.464;18.976;2024-02-21T00:06:53;100586.94;;;9.53;64.08
65666;BME280;52365;47.464;18.976;2024-02-21T00:07:14;100576.69;;;9.48;64.15
65666;BME280;52365;47.464;18.976;2024-02-21T00:07:35;100575.87;;;9.34;64.56
65666;BME280;52365;47.464;18.976;2024-02-21T00:07:57;100574.22;;;9.24;64.81
65666;BME280;52365;47.464;18.976;2024-02-21T00:08:18;100578.06;;;9.40;64.94
65666;BME280;52365;47.464;18.976;2024-02-21T00:08:39;100576.22;;;9.37;64.71
65666;BME280;52365;47.464;18.976;2024-02-21T00:09:00;100583.59;;;9.49;64.55
65666;BME280;52365;47.464;18.976;2024-02-21T00:09:21;100576.63;;;9.64;64.15
65666;BME280;52365;47.464;18.976;2024-02-21T00:09:42;100579.31;;;9.64;63.81
65666;BME280;52365;47.464;18.976;2024-02-21T00:10:04;100579.22;;;9.68;63.68
65666;BME280;52365;47.464;18.976;2024-02-21T00:10:25;100578.12;;;9.65;63.60
65666;BME280;52365;47.464;18.976;2024-02-21T00:10:46;100576.88;;;9.41;64.19
65666;BME280;52365;47.464;18.976;2024-02-21T00:11:07;100571.81;;;9.43;64.23
65666;BME280;52365;47.464;18.976;2024-02-21T00:11:28;100571.06;;;9.42;64.35
65666;BME280;52365;47.464;18.976;2024-02-21T00:11:44;100568.16;;;9.37;64.45
65666;BME280;52365;47.464;18.976;2024-02-21T00:12:05;100575.03;;;9.38;64.53
65666;BME280;52365;47.464;18.976;2024-02-21T00:12:26;100574.31;;;9.21;64.79
65666;BME280;52365;47.464;18.976;2024-02-21T00:12:47;100577.28;;;9.26;64.92
65666;BME280;52365;47.464;18.976;2024-02-21T00:13:08;100570.94;;;9.33;64.76
65666;BME280;52365;47.464;18.976;2024-02-21T00:13:29;100570.75;;;9.40;64.72
65666;BME280;52365;47.464;18.976;2024-02-21T00:13:50;100567.44;;;9.49;64.49
65666;BME280;52365;47.464;18.976;2024-02-21T00:14:11;100570.75;;;9.40;64.47
65666;BME280;52365;47.464;18.976;2024-02-21T00:14:32;100575.87;;;9.34;64.63
65666;BME280;52365;47.464;18.976;2024-02-21T00:14:53;100572.44;;;9.05;65.08
65666;BME280;52365;47.464;18.976;2024-02-21T00:15:14;100568.78;;;9.12;65.37
65666;BME280;52365;47.464;18.976;2024-02-21T00:15:35;100568.38;;;9.13;65.51
65666;BME280;52365;47.464;18.976;2024-02-21T00:15:56;100566.00;;;9.15;65.23
65666;BME280;52365;47.464;18.976;2024-02-21T00:16:17;100568.31;;;9.00;65.49
65666;BME280;52365;47.464;18.976;2024-02-21T00:16:38;100564.69;;;9.07;65.69
65666;BME280;52365;47.464;18.976;2024-02-21T00:16:59;100569.47;;;9.16;65.41
65666;BME280;52365;47.464;18.976;2024-02-21T00:17:20;100566.59;;;9.23;65.08
65666;BME280;52365;47.464;18.976;2024-02-21T00:17:40;100571.97;;;9.23;64.89
65666;BME280;52365;47.464;18.976;2024-02-21T00:18:01;100569.59;;;9.25;64.75
65666;BME280;52365;47.464;18.976;2024-02-21T00:18:22;100570.56;;;9.18;64.92
65666;BME280;52365;47.464;18.976;2024-02-21T00:18:43;100566.69;;;9.19;65.05
65666;BME280;52365;47.464;18.976;2024-02-21T00:19:04;100564.66;;;9.23;64.91
65666;BME280;52365;47.464;18.976;2024-02-21T00:19:25;100572.87;;;9.32;64.83
65666;BME280;52365;47.464;18.976;2024-02-21T00:19:46;100566.25;;;9.21;64.76
65666;BME280;52365;47.464;18.976;2024-02-21T00:20:07;100569.03;;;9.17;65.04
65666;BME280;52365;47.464;18.976;2024-02-21T00:20:29;100566.34;;;9.17;65.06
65666;BME280;52365;47.464;18.976;2024-02-21T00:20:50;100558.72;;;8.99;65.43
65666;BME280;52365;47.464;18.976;2024-02-21T00:21:11;100568.06;;;8.95;65.98
65666;BME280;52365;47.464;18.976;2024-02-21T00:21:38;100559.81;;;9.02;65.68
65666;BME280;52365;47.464;18.976;2024-02-21T00:21:59;100554.88;;;9.00;65.64
65666;BME280;52365;47.464;18.976;2024-02-21T00:22:20;100562.16;;;9.00;65.58
65666;BME280;52365;47.464;18.976;2024-02-21T00:22:41;100564.59;;;9.11;65.43
65666;BME280;52365;47.464;18.976;2024-02-21T00:23:02;100560.56;;;9.19;65.20
65666;BME280;52365;47.464;18.976;2024-02-21T00:23:23;100562.81;;;9.20;64.88
65666;BME280;52365;47.464;18.976;2024-02-21T00:23:44;100555.75;;;9.26;64.81
65666;BME280;52365;47.464;18.976;2024-02-21T00:24:08;100554.97;;;9.26;64.72
65666;BME280;52365;47.464;18.976;2024-02-21T00:24:29;100561.56;;;9.08;64.87
65666;BME280;52365;47.464;18.976;2024-02-21T00:24:53;100560.41;;;9.10;65.00
65666;BME280;52365;47.464;18.976;2024-02-21T00:25:13;100558.44;;;9.26;64.75
65666;BME280;52365;47.464;18.976;2024-02-21T00:25:34;100557.12;;;9.02;64.95
65666;BME280;52365;47.464;18.976;2024-02-21T00:25:55;100555.72;;;8.97;65.21
65666;BME280;52365;47.464;18.976;2024-02-21T00:26:16;100554.28;;;8.93;65.34
65666;BME280;52365;47.464;18.976;2024-02-21T00:26:37;100558.66;;;8.87;65.63
65666;BME280;52365;47.464;18.976;2024-02-21T00:26:58;100559.50;;;8.83;65.69
65666;BME280;52365;47.464;18.976;2024-02-21T00:27:19;100556.22;;;8.76;66.03
65666;BME280;52365;47.464;18.976;2024-02-21T00:27:40;100555.47;;;8.92;65.89
65666;BME280;52365;47.464;18.976;2024-02-21T00:28:01;100562.50;;;9.02;65.57
65666;BME280;52365;47.464;18.976;2024-02-21T00:28:22;100556.69;;;9.03;65.50
65666;BME280;52365;47.464;18.976;2024-02-21T00:28:43;100552.50;;;9.02;65.76
65666;BME280;52365;47.464;18.976;2024-02-21T00:29:04;100560.13;;;9.20;65.38
65666;BME280;52365;47.464;18.976;2024-02-21T00:29:26;100556.16;;;9.25;65.00
65666;BME280;52365;47.464;18.976;2024-02-21T00:29:48;100558.94;;;9.21;64.74
65666;BME280;52365;47.464;18.976;2024-02-21T00:30:09;100554.81;;;9.17;64.67
65666;BME280;52365;47.464;18.976;2024-02-21T00:30:30;100558.69;;;9.16;64.90
65666;BME280;52365;47.464;18.976;2024-02-21T00:30:51;100563.03;;;9.26;64.61
65666;BME280;52365;47.464;18.976;2024-02-21T00:31:13;100564.44;;;9.18;64.66
65666;BME280;52365;47.464;18.976;2024-02-21T00:31:34;100569.09;;;9.30;64.73
65666;BME280;52365;47.464;18.976;2024-02-21T00:31:55;100558.59;;;9.36;64.37
65666;BME280;52365;47.464;18.976;2024-02-21T00:32:16;100556.22;;;9.38;64.21
65666;BME280;52365;47.464;18.976;2024-02-21T00:32:37;100561.41;;;9.45;63.95
65666;BME280;52365;47.464;18.976;2024-02-21T00:32:58;100562.06;;;9.49;63.79
65666;BME280;52365;47.464;18.976;2024-02-21T00:33:19;100556.56;;;9.40;63.90
65666;BME280;52365;47.464;18.976;2024-02-21T00:33:40;100556.81;;;9.29;64.33
65666;BME280;52365;47.464;18.976;2024-02-21T00:34:01;100558.75;;;9.28;64.37
65666;BME280;52365;47.464;18.976;2024-02-21T00:34:21;100558.81;;;9.41;64.24
65666;BME280;52365;47.464;18.976;2024-02-21T00:34:43;100561.06;;;9.43;64.00
65666;BME280;52365;47.464;18.976;2024-02-21T00:35:04;100560.94;;;9.33;64.17
65666;BME280;52365;47.464;18.976;2024-02-21T00:35:25;100554.03;;;9.32;64.16
65666;BME280;52365;47.464;18.976;2024-02-21T00:35:46;100558.03;;;9.12;64.50
65666;BME280;52365;47.464;18.976;2024-02-21T00:36:07;100552.19;;;9.00;65.01
65666;BME280;52365;47.464;18.976;2024-02-21T00:36:28;100553.56;;;9.21;65.00
65666;BME280;52365;47.464;18.976;2024-02-21T00:36:49;100553.09;;;9.39;64.61
65666;BME280;52365;47.464;18.976;2024-02-21T00:37:11;100550.97;;;9.18;64.59
65666;BME280;52365;47.464;18.976;2024-02-21T00:37:31;100555.25;;;9.15;64.98
65666;BME280;52365;47.464;18.976;2024-02-21T00:37:52;100552.19;;;9.29;64.80
65666;BME280;52365;47.464;18.976;2024-02-21T00:38:13;100555.09;;;9.22;64.73
65666;BME280;52365;47.464;18.976;2024-02-21T00:38:34;100553.25;;;9.03;64.98
65666;BME280;52365;47.464;18.976;2024-02-21T00:38:55;100549.37;;;9.04;65.13
65666;BME280;52365;47.464;18.976;2024-02-21T00:39:16;100549.97;;;9.12;65.23
65666;BME280;52365;47.464;18.976;2024-02-21T00:39:37;100555.75;;;9.26;64.92
65666;BME280;52365;47.464;18.976;2024-02-21T00:39:58;100546.75;;;9.17;64.97
65666;BME280;52365;47.464;18.976;2024-02-21T00:40:19;100549.19;;;9.27;64.79
65666;BME280;52365;47.464;18.976;2024-02-21T00:40:41;100554.66;;;9.24;64.63
65666;BME280;52365;47.464;18.976;2024-02-21T00:41:02;100543.22;;;9.20;64.77
65666;BME280;52365;47.464;18.976;2024-02-21T00:41:23;100550.81;;;9.38;64.57
65666;BME280;52365;47.464;18.976;2024-02-21T00:41:44;100550.56;;;9.48;64.16
65666;BME280;52365;47.464;18.976;2024-02-21T00:42:05;100546.69;;;9.49;63.79
65666;BME280;52365;47.464;18.976;2024-02-21T00:42:23;100551.34;;;9.32;63.96
65666;BME280;52365;47.464;18.976;2024-02-21T00:42:43;100552.84;;;9.33;64.10
65666;BME280;52365;47.464;18.976;2024-02-21T00:43:04;100549.31;;;9.37;64.02
65666;BME280;52365;47.464;18.976;2024-02-21T00:43:25;100555.75;;;9.26;64.22
65666;BME280;52365;47.464;18.976;2024-02-21T00:43:46;100547.91;;;9.32;64.41
65666;BME280;52365;47.464;18.976;2024-02-21T00:44:09;100543.09;;;9.40;64.13
65666;BME280;52365;47.464;18.976;2024-02-21T00:44:31;100546.72;;;9.33;64.03
65666;BME280;52365;47.464;18.976;2024-02-21T00:44:51;100547.78;;;9.23;64.21
65666;BME280;52365;47.464;18.976;2024-02-21T00:45:12;100543.97;;;9.20;64.39
65666;BME280;52365;47.464;18.976;2024-02-21T00:45:33;100540.25;;;9.30;64.37
65666;BME280;52365;47.464;18.976;2024-02-21T00:45:54;100551.78;;;9.31;64.15
65666;BME280;52365;47.464;18.976;2024-02-21T00:46:15;100551.78;;;9.31;64.06
65666;BME280;52365;47.464;18.976;2024-02-21T00:46:36;100542.94;;;9.30;64.03
65666;BME280;52365;47.464;18.976;2024-02-21T00:46:59;100532.53;;;9.32;64.10
65666;BME280;52365;47.464;18.976;2024-02-21T00:47:20;100538.09;;;9.25;64.10
65666;BME280;52365;47.464;18.976;2024-02-21T00:47:41;100552.84;;;9.33;64.21
65666;BME280;52365;47.464;18.976;2024-02-21T00:48:03;100540.59;;;9.32;64.12
65666;BME280;52365;47.464;18.976;2024-02-21T00:48:24;100544.03;;;9.33;64.07
65666;BME280;52365;47.464;18.976;2024-02-21T00:48:45;100548.66;;;9.32;63.95
65666;BME280;52365;47.464;18.976;2024-02-21T00:49:05;100546.25;;;9.22;64.17
65666;BME280;52365;47.464;18.976;2024-02-21T00:49:27;100546.88;;;9.13;64.39
65666;BME280;52365;47.464;18.976;2024-02-21T00:49:48;100542.19;;;9.01;64.66
65666;BME280;52365;47.464;18.976;2024-02-21T00:50:09;100547.12;;;9.02;64.82
65666;BME280;52365;47.464;18.976;2024-02-21T00:50:30;100544.53;;;8.99;64.83
65666;BME280;52365;47.464;18.976;2024-02-21T00:50:51;100548.56;;;8.91;64.99
65666;BME280;52365;47.464;18.976;2024-02-21T00:51:12;100544.38;;;8.90;65.21
65666;BME280;52365;47.464;18.976;2024-02-21T00:51:33;100541.59;;;8.93;65.09
65666;BME280;52365;47.464;18.976;2024-02-21T00:51:54;100544.31;;;8.77;65.52
65666;BME280;52365;47.464;18.976;2024-02-21T00:52:15;100544.72;;;8.92;65.44
65666;BME280;52365;47.464;18.976;2024-02-21T00:52:36;100550.34;;;8.97;65.31
65666;BME280;52365;47.464;18.976;2024-02-21T00:52:57;100541.75;;;9.02;64.97
65666;BME280;52365;47.464;18.976;2024-02-21T00:53:18;100540.00;;;8.96;64.97
65666;BME280;52365;47.464;18.976;2024-02-21T00:53:39;100545.78;;;8.94;65.04
65666;BME280;52365;47.464;18.976;2024-02-21T00:54:00;100544.63;;;8.95;65.02
65666;BME280;52365;47.464;18.976;2024-02-21T00:54:22;100545.03;;;8.94;65.05
65666;BME280;52365;47.464;18.976;2024-02-21T00:54:43;100542.19;;;9.01;64.90
65666;BME280;52365;47.464;18.976;2024-02-21T00:55:05;100539.59;;;8.97;64.86
65666;BME280;52365;47.464;18.976;2024-02-21T00:55:26;100540.50;;;8.91;65.01
65666;BME280;52365;47.464;18.976;2024-02-21T00:55:46;100539.00;;;8.90;65.00
65666;BME280;52365;47.464;18.976;2024-02-21T00:56:07;100532.69;;;8.96;64.92
65666;BME280;52365;47.464;18.976;2024-02-21T00:56:28;100535.72;;;8.98;64.73
65666;BME280;52365;47.464;18.976;2024-02-21T00:56:50;100540.31;;;9.14;64.41
65666;BME280;52365;47.464;18.976;2024-02-21T00:57:11;100543.84;;;9.11;64.23
65666;BME280;52365;47.464;18.976;2024-02-21T00:57:32;100542.13;;;9.17;64.14
65666;BME280;52365;47.464;18.976;2024-02-21T00:57:53;100544.69;;;9.08;64.12
65666;BME280;52365;47.464;18.976;2024-02-21T00:58:14;100538.87;;;9.10;64.30
65666;BME280;52365;47.464;18.976;2024-02-21T00:58:35;100544.50;;;9.15;64.23
65666;BME280;52365;47.464;18.976;2024-02-21T00:58:56;100539.56;;;9.14;64.14
65666;BME280;52365;47.464;18.976;2024-02-21T00:59:18;100544.97;;;8.97;64.41
65666;BME280;52365;47.464;18.976;2024-02-21T00:59:38;100543.47;;;8.96;64.74
65666;BME280;52365;47.464;18.976;2024-02-21T00:59:59;100546.03;;;9.00;64.59
65666;BME280;52365;47.464;18.976;2024-02-21T01:00:20;100545.03;;;8.94;64.74
65666;BME280;52365;47.464;18.976;2024-02-21T01:00:41;100541.59;;;8.93;64.71
65666;BME280;52365;47.464;18.976;2024-02-21T01:01:02;100539.19;;;8.82;64.89
65666;BME280;52365;47.464;18.976;2024-02-21T01:01:25;100548.31;;;9.01;64.74
65666;BME280;52365;47.464;18.976;2024-02-21T01:01:46;100540.41;;;9.11;64.44
65666;BME280;52365;47.464;18.976;2024-02-21T01:02:07;100534.34;;;9.06;64.44
65666;BME280;52365;47.464;18.976;2024-02-21T01:02:27;100541.16;;;9.11;64.22
65666;BME280;52365;47.464;18.976;2024-02-21T01:02:48;100538.47;;;8.95;64.20
65666;BME280;52365;47.464;18.976;2024-02-21T01:03:09;100545.78;;;8.94;64.27
65666;BME280;52365;47.464;18.976;2024-02-21T01:03:30;100539.16;;;8.99;64.40
65666;BME280;52365;47.464;18.976;2024-02-21T01:03:46;100537.56;;;9.01;64.39
65666;BME280;52365;47.464;18.976;2024-02-21T01:04:07;100539.66;;;8.94;64.26
65666;BME280;52365;47.464;18.976;2024-02-21T01:04:28;100537.50;;;8.89;64.49
65666;BME280;52365;47.464;18.976;2024-02-21T01:04:49;100536.91;;;8.97;64.56
65666;BME280;52365;47.464;18.976;2024-02-21T01:05:10;100540.16;;;9.05;64.35
65666;BME280;52365;47.464;18.976;2024-02-21T01:05:31;100539.97;;;9.12;63.93
65666;BME280;52365;47.464;18.976;2024-02-21T01:05:52;100537.97;;;9.00;64.13
65666;BME280;52365;47.464;18.976;2024-02-21T01:06:12;100539.41;;;9.04;64.18
65666;BME280;52365;47.464;18.976;2024-02-21T01:06:33;100541.38;;;9.17;63.89
65666;BME280;52365;47.464;18.976;2024-02-21T01:06:54;100537.88;;;9.03;63.93
65666;BME280;52365;47.464;18.976;2024-02-21T01:07:15;100538.84;;;8.97;64.10
65666;BME280;52365;47.464;18.976;2024-02-21T01:07:36;100529.69;;;8.78;64.56
65666;BME280;52365;47.464;18.976;2024-02-21T01:07:57;100537.66;;;8.81;64.51
65666;BME280;52365;47.464;18.976;2024-02-21T01:08:18;100536.31;;;8.73;64.78
65666;BME280;52365;47.464;18.976;2024-02-21T01:08:39;100532.88;;;8.89;64.77
65666;BME280;52365;47.464;18.976;2024-02-21T01:09:00;100532.59;;;9.00;64.47
65666;BME280;52365;47.464;18.976;2024-02-21T01:09:21;100537.63;;;9.14;64.06
65666;BME280;52365;47.464;18.976;2024-02-21T01:09:42;100532.78;;;9.22;63.51
65666;BME280;52365;47.464;18.976;2024-02-21T01:10:03;100533.00;;;9.15;63.55
65666;BME280;52365;47.464;18.976;2024-02-21T01:10:24;100540.25;;;9.30;63.42
65666;BME280;52365;47.464;18.976;2024-02-21T01:10:45;100531.38;;;9.17;63.26
65666;BME280;52365;47.464;18.976;2024-02-21T01:11:06;100533.44;;;9.26;63.33
65666;BME280;52365;47.464;18.976;2024-02-21T01:11:27;100540.38;;;9.27;63.26
65666;BME280;52365;47.464;18.976;2024-02-21T01:11:48;100547.28;;;9.41;62.95
65666;BME280;52365;47.464;18.976;2024-02-21T01:12:09;100536.06;;;9.29;62.94
65666;BME280;52365;47.464;18.976;2024-02-21T01:12:30;100533.72;;;9.31;63.16
65666;BME280;52365;47.464;18.976;2024-02-21T01:12:51;100542.88;;;9.47;62.86
65666;BME280;52365;47.464;18.976;2024-02-21T01:13:12;100540.09;;;9.50;62.52
65666;BME280;52365;47.464;18.976;2024-02-21T01:13:33;100536.19;;;9.39;62.61
65666;BME280;52365;47.464;18.976;2024-02-21T01:13:55;100541.78;;;9.31;62.89
65666;BME280;52365;47.464;18.976;2024-02-21T01:14:16;100542.47;;;9.19;63.21
65666;BME280;52365;47.464;18.976;2024-02-21T01:14:37;100535.53;;;9.34;63.14
65666;BME280;52365;47.464;18.976;2024-02-21T01:14:58;100540.72;;;9.42;62.87
65666;BME280;52365;47.464;18.976;2024-02-21T01:15:19;100546.25;;;9.51;62.65
65666;BME280;52365;47.464;18.976;2024-02-21T01:15:40;100545.63;;;9.59;62.47
65666;BME280;52365;47.464;18.976;2024-02-21T01:16:00;100543.91;;;9.66;62.11
65666;BME280;52365;47.464;18.976;2024-02-21T01:16:21;100543.16;;;9.65;62.10
65666;BME280;52365;47.464;18.976;2024-02-21T01:16:42;100543.72;;;9.73;61.86
65666;BME280;52365;47.464;18.976;2024-02-21T01:17:03;100549.84;;;9.73;61.77
65666;BME280;52365;47.464;18.976;2024-02-21T01:17:26;100542.88;;;9.76;61.63
65666;BME280;52365;47.464;18.976;2024-02-21T01:17:47;100544.03;;;9.62;61.80
65666;BME280;52365;47.464;18.976;2024-02-21T01:18:10;100548.53;;;9.65;61.91
65666;BME280;52365;47.464;18.976;2024-02-21T01:18:34;100549.06;;;9.60;61.92
65666;BME280;52365;47.464;18.976;2024-02-21T01:18:55;100548.13;;;9.67;61.89
65666;BME280;52365;47.464;18.976;2024-02-21T01:19:16;100540.22;;;9.59;61.87
65666;BME280;52365;47.464;18.976;2024-02-21T01:19:37;100543.28;;;9.62;61.94
65666;BME280;52365;47.464;18.976;2024-02-21T01:19:58;100545.97;;;9.62;61.98
65666;BME280;52365;47.464;18.976;2024-02-21T01:20:19;100552.63;;;9.70;61.88
65666;BME280;52365;47.464;18.976;2024-02-21T01:20:40;100550.72;;;9.70;61.81
65666;BME280;52365;47.464;18.976;2024-02-21T01:21:01;100548.34;;;9.72;61.74
65666;BME280;52365;47.464;18.976;2024-02-21T01:21:22;100541.50;;;9.55;62.16
65666;BME280;52365;47.464;18.976;2024-02-21T01:21:43;100548.84;;;9.54;62.43
65666;BME280;52365;47.464;18.976;2024-02-21T01:22:04;100542.50;;;9.61;62.33
65666;BME280;52365;47.464;18.976;2024-02-21T01:22:25;100546.69;;;9.49;62.51
65666;BME280;52365;47.464;18.976;2024-02-21T01:22:46;100548.00;;;9.57;62.39
65666;BME280;52365;47.464;18.976;2024-02-21T01:23:07;100544.34;;;9.64;62.24
65666;BME280;52365;47.464;18.976;2024-02-21T01:23:28;100540.88;;;9.64;62.09
65666;BME280;52365;47.464;18.976;2024-02-21T01:23:49;100550.28;;;9.72;62.04
65666;BME280;52365;47.464;18.976;2024-02-21T01:24:10;100544.38;;;9.77;61.64
65666;BME280;52365;47.464;18.976;2024-02-21T01:24:26;100542.78;;;9.92;61.44
65666;BME280;52365;47.464;18.976;2024-02-21T01:24:47;100539.66;;;9.94;61.09
65666;BME280;52365;47.464;18.976;2024-02-21T01:25:08;100549.94;;;9.70;61.30
65666;BME280;52365;47.464;18.976;2024-02-21T01:25:29;100539.16;;;9.57;61.78
65666;BME280;52365;47.464;18.976;2024-02-21T01:25:50;100542.88;;;9.47;62.17
65666;BME280;52365;47.464;18.976;2024-02-21T01:26:11;100549.69;;;9.51;62.28
65666;BME280;52365;47.464;18.976;2024-02-21T01:26:29;100544.12;;;9.58;62.10
65666;BME280;52365;47.464;18.976;2024-02-21T01:26:50;100550.25;;;9.59;62.04
65666;BME280;52365;47.464;18.976;2024-02-21T01:27:11;100545.44;;;9.67;61.94
65666;BME280;52365;47.464;18.976;2024-02-21T01:27:32;100540.06;;;9.38;62.18
65666;BME280;52365;47.464;18.976;2024-02-21T01:27:53;100539.13;;;9.15;62.79
65666;BME280;52365;47.464;18.976;2024-02-21T01:28:14;100534.50;;;9.16;63.57
65666;BME280;52365;47.464;18.976;2024-02-21T01:28:35;100544.31;;;9.22;63.19
65666;BME280;52365;47.464;18.976;2024-02-21T01:28:56;100544.59;;;9.12;63.43
65666;BME280;52365;47.464;18.976;2024-02-21T01:29:17;100538.87;;;9.10;63.54
65666;BME280;52365;47.464;18.976;2024-02-21T01:29:38;100545.63;;;9.30;63.22
65666;BME280;52365;47.464;18.976;2024-02-21T01:29:59;100546.09;;;9.42;62.80
65666;BME280;52365;47.464;18.976;2024-02-21T01:30:20;100536.31;;;9.48;62.41
65666;BME280;52365;47.464;18.976;2024-02-21T01:30:40;100534.69;;;9.38;62.31
65666;BME280;52365;47.464;18.976;2024-02-21T01:31:01;100536.91;;;9.26;62.68
65666;BME280;52365;47.464;18.976;2024-02-21T01:31:22;100538.03;;;9.42;62.50
65666;BME280;52365;47.464;18.976;2024-02-21T01:31:43;100538.87;;;9.39;62.42
65666;BME280;52365;47.464;18.976;2024-02-21T01:32:07;100539.50;;;9.30;62.64
65666;BME280;52365;47.464;18.976;2024-02-21T01:32:28;100537.81;;;9.36;62.73
65666;BME280;52365;47.464;18.976;2024-02-21T01:32:49;100538.34;;;9.44;62.42
65666;BME280;52365;47.464;18.976;2024-02-21T01:33:09;100537.59;;;9.43;62.24
65666;BME280;52365;47.464;18.976;2024-02-21T01:33:30;100538.87;;;9.39;62.25
65666;BME280;52365;47.464;18.976;2024-02-21T01:33:55;100535.34;;;9.42;62.36
65666;BME280;52365;47.464;18.976;2024-02-21T01:34:16;100535.91;;;9.49;62.19
65666;BME280;52365;47.464;18.976;2024-02-21T01:34:37;100535.59;;;9.60;62.00
65666;BME280;52365;47.464;18.976;2024-02-21T01:34:58;100539.28;;;9.66;61.61
65666;BME280;52365;47.464;18.976;2024-02-21T01:35:19;100542.50;;;9.61;61.50
65666;BME280;52365;47.464;18.976;2024-02-21T01:35:40;100536.66;;;9.50;61.72
65666;BME280;52365;47.464;18.976;2024-02-21T01:36:02;100540.41;;;9.40;62.31
65666;BME280;52365;47.464;18.976;2024-02-21T01:36:23;100536.31;;;9.48;62.17
65666;BME280;52365;47.464;18.976;2024-02-21T01:36:44;100535.72;;;9.27;62.75
65666;BME280;52365;47.464;18.976;2024-02-21T01:37:05;100539.75;;;9.36;62.85
65666;BME280;52365;47.464;18.976;2024-02-21T01:37:28;100537.50;;;9.47;62.68
65666;BME280;52365;47.464;18.976;2024-02-21T01:37:48;100540.00;;;9.54;62.23
65666;BME280;52365;47.464;18.976;2024-02-21T01:38:09;100543.09;;;9.40;62.36
65666;BME280;52365;47.464;18.976;2024-02-21T01:38:31;100544.34;;;9.06;63.14
65666;BME280;52365;47.464;18.976;2024-02-21T01:38:52;100536.38;;;9.02;63.58
65666;BME280;52365;47.464;18.976;2024-02-21T01:39:13;100533.25;;;9.04;63.59
65666;BME280;52365;47.464;18.976;2024-02-21T01:39:34;100536.28;;;9.06;63.57
65666;BME280;52365;47.464;18.976;2024-02-21T01:39:56;100535.63;;;9.02;63.57
65666;BME280;52365;47.464;18.976;2024-02-21T01:40:17;100537.31;;;8.96;63.68
65666;BME280;52365;47.464;18.976;2024-02-21T01:40:38;100527.94;;;8.88;63.84
65666;BME280;52365;47.464;18.976;2024-02-21T01:40:59;100528.91;;;8.94;63.95
65666;BME280;52365;47.464;18.976;2024-02-21T01:41:20;100530.16;;;9.05;63.86
65666;BME280;52365;47.464;18.976;2024-02-21T01:41:41;100538.97;;;9.06;63.83
65666;BME280;52365;47.464;18.976;2024-02-21T01:42:02;100530.22;;;9.18;63.53
65666;BME280;52365;47.464;18.976;2024-02-21T01:42:23;100531.91;;;9.12;63.68
65666;BME280;52365;47.464;18.976;2024-02-21T01:42:44;100537.22;;;8.99;63.69
65666;BME280;52365;47.464;18.976;2024-02-21T01:43:15;100536.00;;;8.88;63.93
65666;BME280;52365;47.464;18.976;2024-02-21T01:43:36;100533.44;;;8.97;64.10
65666;BME280;52365;47.464;18.976;2024-02-21T01:43:57;100533.78;;;8.99;63.98
65666;BME280;52365;47.464;18.976;2024-02-21T01:44:19;100543.16;;;9.07;63.86
65666;BME280;52365;47.464;18.976;2024-02-21T01:44:39;100536.19;;;9.10;63.69
65666;BME280;52365;47.464;18.976;2024-02-21T01:45:00;100533.44;;;9.13;63.60
65666;BME280;52365;47.464;18.976;2024-02-21T01:45:22;100534.12;;;9.01;63.81
65666;BME280;52365;47.464;18.976;2024-02-21T01:45:43;100537.56;;;9.01;63.75
65666;BME280;52365;47.464;18.976;2024-02-21T01:46:04;100526.75;;;8.89;64.04
65666;BME280;52365;47.464;18.976;2024-02-21T01:46:25;100529.28;;;8.79;64.43
65666;BME280;52365;47.464;18.976;2024-02-21T01:46:55;100531.09;;;8.99;64.42
65666;BME280;52365;47.464;18.976;2024-02-21T01:47:16;100528.37;;;9.15;63.74
65666;BME280;52365;47.464;18.976;2024-02-21T01:47:37;100535.72;;;9.27;63.38
65666;BME280;52365;47.464;18.976;2024-02-21T01:47:58;100537.41;;;9.21;63.27
65666;BME280;52365;47.464;18.976;2024-02-21T01:48:19;100537.03;;;9.06;63.46
65666;BME280;52365;47.464;18.976;2024-02-21T01:48:40;100533.69;;;9.02;63.72
65666;BME280;52365;47.464;18.976;2024-02-21T01:49:01;100527.50;;;8.89;64.11
65666;BME280;52365;47.464;18.976;2024-02-21T01:49:23;100534.66;;;8.79;64.35
65666;BME280;52365;47.464;18.976;2024-02-21T01:49:45;100529.44;;;8.72;64.67
65666;BME280;52365;47.464;18.976;2024-02-21T01:50:06;100530.19;;;8.73;64.70
65666;BME280;52365;47.464;18.976;2024-02-21T01:50:28;100529.00;;;8.90;64.42